createdAt,value
2022-08-03T00:00:25.354Z,976.86
2022-08-03T00:06:05.555Z,976.88
2022-08-03T00:11:29.097Z,976.98
2022-08-03T00:17:00.546Z,976.97
2022-08-03T00:22:36.652Z,977.04
2022-08-03T00:28:09.386Z,977.14
2022-08-03T00:34:04.262Z,977.15
2022-08-03T00:39:11.860Z,976.84
2022-08-03T00:44:43.817Z,976.98
2022-08-03T00:50:15.479Z,977.02
2022-08-03T00:55:46.902Z,977.06
2022-08-03T01:01:18.954Z,977.08
2022-08-03T01:06:50.320Z,977.1
2022-08-03T01:12:22.091Z,977.11
2022-08-03T01:17:53.834Z,977.24
2022-08-03T01:23:30.093Z,977.18
2022-08-03T01:29:01.867Z,977.29
2022-08-03T01:34:33.278Z,977.38
2022-08-03T01:40:05.086Z,977.42
2022-08-03T01:45:37.087Z,977.27
2022-08-03T01:51:08.553Z,977.24
2022-08-03T01:56:40.254Z,977.3
2022-08-03T02:02:35.126Z,977.4
2022-08-03T02:07:43.909Z,977.55
2022-08-03T02:13:15.441Z,977.53
2022-08-03T02:18:48.976Z,977.68
2022-08-03T02:24:23.291Z,977.7
2022-08-03T02:29:55.059Z,977.79
2022-08-03T02:35:26.706Z,977.97
2022-08-03T02:40:58.514Z,977.94
2022-08-03T02:46:30.132Z,977.94
2022-08-03T02:52:01.862Z,977.94
2022-08-03T02:57:33.606Z,978.01
2022-08-03T03:03:05.423Z,977.96
2022-08-03T03:08:39.669Z,978.12
2022-08-03T03:14:09.423Z,977.89
2022-08-03T03:19:40.497Z,978.08
2022-08-03T03:25:18.612Z,978.08
2022-08-03T03:30:54.072Z,978.18
2022-08-03T03:36:22.113Z,978.25
2022-08-03T03:41:53.881Z,978.47
2022-08-03T03:47:33.466Z,978.5
2022-08-03T03:52:57.245Z,978.41
2022-08-03T03:58:28.977Z,978.47
2022-08-03T04:04:00.717Z,978.6
2022-08-03T04:09:32.690Z,978.71
2022-08-03T04:15:04.213Z,978.82
2022-08-03T04:20:35.869Z,978.94
2022-08-03T04:26:12.140Z,979.04
2022-08-03T04:31:43.737Z,979.07
2022-08-03T04:37:15.400Z,979.3
2022-08-03T04:42:47.151Z,979.33
2022-08-03T04:48:18.864Z,979.34
2022-08-03T04:53:51.528Z,979.49
2022-08-03T04:59:22.339Z,979.65
2022-08-03T05:04:54.046Z,979.89
2022-08-03T05:10:25.764Z,980.14
2022-08-03T05:15:57.669Z,980.49
2022-08-03T05:21:53.601Z,980.43
2022-08-03T05:27:05.436Z,980.66
2022-08-03T05:32:36.910Z,980.76
2022-08-03T05:38:10.920Z,980.99
2022-08-03T05:43:40.446Z,980.96
2022-08-03T05:49:12.375Z,981.15
2022-08-03T05:54:58.201Z,981.34
2022-08-03T06:00:16.633Z,981.22
2022-08-03T06:06:01.235Z,981.62
2022-08-03T06:11:19.133Z,981.77
2022-08-03T06:16:50.943Z,981.5
2022-08-03T06:22:27.493Z,981.49
2022-08-03T06:28:00.916Z,982.07
2022-08-03T06:34:36.414Z,981.66
2022-08-03T06:39:04.215Z,982.19
2022-08-03T06:44:35.861Z,981.5
2022-08-03T06:50:22.989Z,982.22
2022-08-03T06:55:43.223Z,982.09
2022-08-03T07:01:11.231Z,982.11
2022-08-03T07:06:42.966Z,982.5
2022-08-03T07:12:14.710Z,981.95
2022-08-03T07:17:46.228Z,981.96
2022-08-03T07:23:21.094Z,981.96
2022-08-03T07:28:54.122Z,981.55
2022-08-03T07:34:25.737Z,981.5
2022-08-03T07:39:57.458Z,981.58
2022-08-03T07:45:29.242Z,981.75
2022-08-03T07:51:00.963Z,982.5
2022-08-03T07:56:32.661Z,982.23
2022-08-03T08:02:04.472Z,982.32
2022-08-03T08:07:36.094Z,980.98
2022-08-03T08:13:07.903Z,981.88
2022-08-03T08:18:39.581Z,981.32
2022-08-03T08:24:20.769Z,981.72
2022-08-03T08:30:07.403Z,981.49
2022-08-03T08:35:19.657Z,980.54
2022-08-03T08:40:50.911Z,981.67
2022-08-03T08:46:24.762Z,980.89
2022-08-03T08:52:02.126Z,980.45
2022-08-03T08:57:43.902Z,980.27
2022-08-03T09:02:58.160Z,980.43
2022-08-03T09:08:29.539Z,980.77
2022-08-03T09:14:01.596Z,981.0
2022-08-03T09:19:33.036Z,980.91
2022-08-03T09:25:25.422Z,980.73
2022-08-03T09:30:40.914Z,979.9
2022-08-03T09:36:12.547Z,979.97
2022-08-03T09:41:44.416Z,979.62
2022-08-03T09:47:16.850Z,980.44
2022-08-03T09:52:53.427Z,980.48
2022-08-03T09:58:19.387Z,979.91
2022-08-03T10:04:05.815Z,979.75
2022-08-03T10:09:23.289Z,979.72
2022-08-03T10:14:54.525Z,979.67
2022-08-03T10:20:26.288Z,979.18
2022-08-03T10:25:58.029Z,979.42
2022-08-03T10:31:58.609Z,979.34
2022-08-03T10:37:09.944Z,978.86
2022-08-03T10:42:41.580Z,979.09
2022-08-03T10:48:13.304Z,979.21
2022-08-03T10:53:56.324Z,978.91
2022-08-03T10:59:28.869Z,978.71
2022-08-03T11:04:48.500Z,978.14
2022-08-03T11:10:20.176Z,979.08
2022-08-03T11:15:52.103Z,978.21
2022-08-03T11:21:30.576Z,978.34
2022-08-03T11:26:55.413Z,978.5
2022-08-03T11:32:33.473Z,977.98
2022-08-03T11:38:06.290Z,977.79
2022-08-03T11:43:37.101Z,978.07
2022-08-03T11:49:11.865Z,978.21
2022-08-03T11:54:40.420Z,978.06
2022-08-03T12:00:12.465Z,978.05
2022-08-03T12:05:52.980Z,977.61
2022-08-03T12:11:15.773Z,977.14
2022-08-03T12:16:47.300Z,977.57
2022-08-03T12:22:19.044Z,977.58
2022-08-03T12:27:50.959Z,977.7
2022-08-03T12:33:28.815Z,977.68
2022-08-03T12:39:00.741Z,977.17
2022-08-03T12:44:32.325Z,977.76
2022-08-03T12:50:04.057Z,977.29
2022-08-03T12:56:06.702Z,976.94
2022-08-03T13:01:15.142Z,976.88
2022-08-03T13:06:39.149Z,976.57
2022-08-03T13:12:11.393Z,976.69
2022-08-03T13:17:42.942Z,976.83
2022-08-03T13:23:23.497Z,976.9
2022-08-03T13:28:46.099Z,976.57
2022-08-03T13:34:24.682Z,976.51
2022-08-03T13:40:03.407Z,976.62
2022-08-03T13:45:25.580Z,976.78
2022-08-03T13:50:57.992Z,976.26
2022-08-03T13:56:29.060Z,976.38
2022-08-03T14:02:01.013Z,976.33
2022-08-03T14:07:32.523Z,976.5
2022-08-03T14:13:04.186Z,976.39
2022-08-03T14:18:41.871Z,976.52
2022-08-03T14:24:08.049Z,976.33
2022-08-03T14:29:39.311Z,976.3
2022-08-03T14:35:17.488Z,976.5
2022-08-03T14:40:49.455Z,976.47
2022-08-03T14:46:20.932Z,976.16
2022-08-03T14:51:54.659Z,976.57
2022-08-03T14:57:25.565Z,976.16
2022-08-03T15:02:56.626Z,976.42
2022-08-03T15:08:27.739Z,976.17
2022-08-03T15:13:59.578Z,975.91
2022-08-03T15:20:39.508Z,975.65
2022-08-03T15:25:03.029Z,975.73
2022-08-03T15:30:35.038Z,976.04
2022-08-03T15:36:10.915Z,975.93
2022-08-03T15:41:42.618Z,975.81
2022-08-03T15:47:14.856Z,975.79
2022-08-03T15:52:46.276Z,975.48
2022-08-03T15:59:14.612Z,975.72
2022-08-03T16:03:49.665Z,975.64
2022-08-03T16:09:44.521Z,975.39
2022-08-03T16:14:54.506Z,975.46
2022-08-03T16:20:35.682Z,975.46
2022-08-03T16:25:56.552Z,975.36
2022-08-03T16:31:28.473Z,974.99
2022-08-03T16:37:39.451Z,974.97
2022-08-03T16:42:36.042Z,975.05
2022-08-03T16:48:08.074Z,975.0
2022-08-03T16:54:14.341Z,974.84
2022-08-03T16:59:15.187Z,974.75
2022-08-03T17:04:45.445Z,974.5
2022-08-03T17:10:27.639Z,974.68
2022-08-03T17:16:02.554Z,974.78
2022-08-03T17:21:20.578Z,974.47
2022-08-03T17:26:52.467Z,974.58
2022-08-03T17:32:26.560Z,974.41
2022-08-03T17:38:12.205Z,974.35
2022-08-03T17:44:37.615Z,974.47
2022-08-03T17:49:26.028Z,974.45
2022-08-03T17:56:10.025Z,974.63
2022-08-03T18:00:09.798Z,974.6
2022-08-03T18:07:13.313Z,974.57
2022-08-03T18:11:15.653Z,974.46
2022-08-03T18:16:43.113Z,974.51
2022-08-03T18:22:14.008Z,974.41
2022-08-03T18:27:48.125Z,974.25
2022-08-03T18:34:35.353Z,974.16
2022-08-03T18:38:55.472Z,974.1
2022-08-03T18:44:56.984Z,974.04
2022-08-03T18:49:59.820Z,973.95
2022-08-03T18:55:35.979Z,973.95
2022-08-03T19:01:04.157Z,973.95
2022-08-03T19:06:36.945Z,973.89
2022-08-03T19:12:37.510Z,973.91
2022-08-03T19:18:37.747Z,973.91
2022-08-03T19:23:11.832Z,974.07
2022-08-03T19:28:41.087Z,974.01
2022-08-03T19:34:17.018Z,973.86
2022-08-03T19:39:57.414Z,974.13
2022-08-03T19:45:20.609Z,974.3
2022-08-03T19:50:52.297Z,974.24
2022-08-03T19:56:24.990Z,974.26
2022-08-03T20:01:55.738Z,974.29
2022-08-03T20:07:27.423Z,974.31
2022-08-03T20:12:59.168Z,974.37
2022-08-03T20:18:39.490Z,974.63
2022-08-03T20:24:25.159Z,974.63
2022-08-03T20:30:08.434Z,974.77
2022-08-03T20:35:12.089Z,974.65
2022-08-03T20:40:42.119Z,974.6
2022-08-03T20:47:00.134Z,974.52
2022-08-03T20:51:54.190Z,974.64
2022-08-03T20:57:18.607Z,974.49
2022-08-03T21:02:49.081Z,974.56
2022-08-03T21:08:21.016Z,974.58
2022-08-03T21:13:52.569Z,974.41
2022-08-03T21:19:24.209Z,974.4
2022-08-03T21:24:56.754Z,974.26
2022-08-03T21:30:27.707Z,974.24
2022-08-03T21:36:03.526Z,974.32
2022-08-03T21:41:37.634Z,974.36
2022-08-03T21:47:09.281Z,974.33
2022-08-03T21:52:43.193Z,974.28
2022-08-03T21:58:12.655Z,974.37
2022-08-03T22:03:54.758Z,974.27
2022-08-03T22:09:16.173Z,974.18
2022-08-03T22:14:47.855Z,974.18
2022-08-03T22:20:19.714Z,974.29
2022-08-03T22:25:51.255Z,974.33
2022-08-03T22:31:59.867Z,974.55
2022-08-03T22:37:00.666Z,974.15
2022-08-03T22:42:32.823Z,974.24
2022-08-03T22:48:05.231Z,974.21
2022-08-03T22:53:36.295Z,974.63
2022-08-03T22:59:42.596Z,974.91
2022-08-03T23:04:39.859Z,974.96
2022-08-03T23:10:11.523Z,974.75
2022-08-03T23:15:43.214Z,974.86
2022-08-03T23:21:15.939Z,974.36
2022-08-03T23:26:46.678Z,974.7
2022-08-03T23:32:18.368Z,974.96
2022-08-03T23:38:24.026Z,974.76
2022-08-03T23:43:54.489Z,975.06
2022-08-03T23:48:57.955Z,974.8
2022-08-03T23:54:29.722Z,974.8
